Etusivu
METAR-TAF:

METAR-TAF

Lentoasemat :

Macao, Kiina

Leveyspiiri: 22-10N, Pituuspiiri: 113-34E, korkeus merenpinnasta: 114 m

Tämänhetkinen sää

Tämä raportti tehtiin 19 minuuttia sitten, kello 02.00 UTC
Tuuli 19 kn pohjoisesta
Lämpötila 20°C
Kosteus 78%
Ilmanpaine 1023 hPa
Näkyvyys 10 km tai enemmän
Muutamia pilviä 2500 ft:n korkeudessa
Hajanaisia pilviä 3500 ft:n korkeudessa

METAR: VMMC 010200Z 35019KT 9999 FEW025 SCT035 20/16 Q1023 NOSIG

Aika: 10:19 (02:19 UTC)

Sääennuste

Tämä raportti tehtiin 3 tuntia ja 19 minuuttia sitten, kello 23.00 UTC
Ennuste voimassa 01. päivästä klo 00 UTC - 02. päivään klo 06 UTC
Tuuli 15 kn pohjoisesta
Näkyvyys 10 km tai enemmän
Muutamia pilviä 2000 ft:n korkeudessa
Hajanaisia pilviä 3000 ft:n korkeudessa

TAF: VMMC 302300Z 0100/0206 36015KT 9999 FEW020 SCT030

Säähavainnot ja -ennusteet yli 4000 lentoasemalta (METAR- ja TAF-raportit).

Käytössä olevat sääasemat on merkitty karttaan keltaisilla ja punaisilla pisteillä.

Aseta hiiri pisteen päälle nähdäksesi sääaseman nimen.

Klikkaa sitten nähdäksesi säähavainnot ja -ennusteet.

Kartan vaihtaminen: klikkaa mustalla rastilla varustettuja vihreitä pisteitä, niin voit zoomata sisään; viivalla varustettua vihreää pistettä, niin voit zoomata ulos tai vihreitä nuolia, niin pääset viereisille kartoille.


METAR-TAF: